Bayshore Gardens, Florida
Current Conditions -  °F | °C
As of 2:53 PM on Monday 24 Nov 2014 (Local Time) from KSRQ Reporting Station
Scattered Clouds Scattered Clouds  
Wind Chill: 26°   Ceiling: Unl
Heat Index: 27°   Visibility: 10mi
Dew Point: 22°   Wind: 13mph
Humidity: 81%   Direction: 190°S
Pressure: 29.93"   Gusts: NA
Location:  27.4402°N, 82.5786°W
Report Text: KSRQ 241953Z 19011KT 10SM SCT004 26/22 A2993 RMK AO2 SLP133 T02560222
Loading
Personal Weather Stations






























Interactive Weather Map New forecast layout! Learn more

10-Day Weather Forecast

Advertisements
Track Severe Weather on mobile